createdAt,value
2023-04-24T00:00:27.262Z,47.49
2023-04-24T00:05:30.636Z,47.82
2023-04-24T00:10:33.394Z,47.79
2023-04-24T00:15:37.544Z,48.15
2023-04-24T00:20:42.780Z,48.54
2023-04-24T00:25:45.623Z,48.78
2023-04-24T00:30:49.796Z,48.92
2023-04-24T00:35:52.589Z,49.21
2023-04-24T00:40:56.012Z,49.40
2023-04-24T00:46:02.693Z,49.62
2023-04-24T00:51:05.609Z,49.58
2023-04-24T00:56:08.401Z,49.98
2023-04-24T01:01:12.808Z,50.13
2023-04-24T01:06:15.817Z,50.30
2023-04-24T01:11:19.444Z,50.39
2023-04-24T01:16:23.638Z,50.49
2023-04-24T01:21:28.667Z,50.45
2023-04-24T01:26:32.960Z,50.64
2023-04-24T01:31:35.756Z,50.86
2023-04-24T01:36:38.546Z,51.05
2023-04-24T01:41:42.972Z,51.05
2023-04-24T01:46:45.934Z,51.34
2023-04-24T01:51:48.762Z,51.30
2023-04-24T01:56:53.025Z,51.46
2023-04-24T02:01:55.791Z,51.68
2023-04-24T02:06:58.591Z,51.89
2023-04-24T02:12:02.825Z,51.96
2023-04-24T02:17:05.820Z,51.89
2023-04-24T02:22:08.578Z,52.15
2023-04-24T02:27:12.684Z,51.95
2023-04-24T02:32:16.586Z,52.10
2023-04-24T02:37:19.860Z,52.32
2023-04-24T02:42:24.011Z,52.38
2023-04-24T02:47:27.516Z,52.36
2023-04-24T02:52:30.316Z,52.58
2023-04-24T02:57:34.498Z,52.65
2023-04-24T03:02:37.482Z,52.70
2023-04-24T03:07:40.304Z,52.84
2023-04-24T03:12:44.430Z,52.73
2023-04-24T03:17:47.230Z,52.74
2023-04-24T03:22:50.030Z,52.86
2023-04-24T03:27:55.849Z,52.58
2023-04-24T03:33:10.834Z,52.52
2023-04-24T03:38:19.938Z,52.43
2023-04-24T03:43:35.477Z,52.42
2023-04-24T03:48:38.760Z,52.12
2023-04-24T03:53:42.563Z,52.35
2023-04-24T03:58:48.636Z,52.47
2023-04-24T04:03:52.255Z,52.29
2023-04-24T04:08:58.342Z,52.31
2023-04-24T04:14:03.075Z,52.43
2023-04-24T04:19:06.408Z,52.41
2023-04-24T04:24:10.680Z,52.63
2023-04-24T04:29:19.760Z,52.51
2023-04-24T04:34:24.604Z,52.41
2023-04-24T04:39:29.103Z,52.46
2023-04-24T04:44:42.445Z,52.47
2023-04-24T04:49:49.802Z,52.48
2023-04-24T04:54:56.402Z,52.23
2023-04-24T05:00:12.689Z,52.21
2023-04-24T05:05:23.790Z,52.07
2023-04-24T05:10:26.758Z,52.02
2023-04-24T05:15:33.237Z,51.89
2023-04-24T05:20:37.579Z,51.92
2023-04-24T05:25:41.399Z,51.72
2023-04-24T05:30:49.305Z,51.65
2023-04-24T05:35:53.404Z,51.49
2023-04-24T05:40:57.389Z,50.99
2023-04-24T05:46:01.582Z,51.04
2023-04-24T05:51:04.458Z,51.16
2023-04-24T05:56:07.677Z,50.77
2023-04-24T06:01:13.315Z,50.80
2023-04-24T06:06:16.985Z,50.55
2023-04-24T06:11:20.543Z,50.46
2023-04-24T06:16:25.404Z,50.22
2023-04-24T06:21:35.189Z,44.61
2023-04-24T06:26:38.444Z,43.86
2023-04-24T06:31:47.610Z,44.00
2023-04-24T06:36:50.632Z,44.28
2023-04-24T06:41:53.509Z,44.05
2023-04-24T06:46:58.258Z,45.08
2023-04-24T06:52:01.342Z,45.84
2023-04-24T06:57:05.920Z,46.30
2023-04-24T07:02:23.488Z,46.34
2023-04-24T07:07:28.601Z,46.20
2023-04-24T07:12:31.487Z,46.06
2023-04-24T07:17:35.927Z,45.97
2023-04-24T07:22:39.545Z,45.87
2023-04-24T07:27:42.388Z,45.95
2023-04-24T07:32:46.639Z,45.88
2023-04-24T07:37:54.816Z,46.26
2023-04-24T07:43:02.015Z,46.05
2023-04-24T07:48:07.688Z,45.97
2023-04-24T07:53:14.608Z,46.26
2023-04-24T07:58:18.358Z,46.21
2023-04-24T08:03:25.974Z,46.13
2023-04-24T08:08:30.647Z,46.17
2023-04-24T08:13:33.570Z,46.00
2023-04-24T08:18:41.478Z,46.04
2023-04-24T08:23:47.271Z,46.20
2023-04-24T08:28:53.530Z,42.73
2023-04-24T08:34:00.573Z,41.38
2023-04-24T08:39:05.190Z,41.38
2023-04-24T08:44:10.551Z,41.59
2023-04-24T08:49:17.200Z,41.55
2023-04-24T08:54:20.117Z,42.27
2023-04-24T08:59:23.295Z,42.52
2023-04-24T09:04:27.880Z,42.47
2023-04-24T09:09:31.913Z,42.73
2023-04-24T09:14:34.749Z,41.61
2023-04-24T09:19:38.938Z,41.39
2023-04-24T09:24:41.798Z,41.87
2023-04-24T09:29:55.696Z,42.05
2023-04-24T09:35:10.331Z,42.13
2023-04-24T09:40:14.576Z,42.30
2023-04-24T09:45:17.554Z,40.73
2023-04-24T09:50:21.712Z,41.06
2023-04-24T09:55:25.337Z,40.36
2023-04-24T10:00:29.281Z,40.56
2023-04-24T10:05:34.474Z,40.02
2023-04-24T10:10:40.470Z,40.88
2023-04-24T10:15:43.602Z,41.79
2023-04-24T10:20:47.845Z,42.26
2023-04-24T10:25:50.617Z,42.28
2023-04-24T10:30:55.760Z,42.88
2023-04-24T10:36:00.406Z,43.46
2023-04-24T10:41:10.186Z,43.15
2023-04-24T10:46:13.312Z,42.70
2023-04-24T10:51:17.576Z,42.68
2023-04-24T10:56:20.563Z,42.81
2023-04-24T11:01:27.198Z,42.69
2023-04-24T11:06:36.648Z,42.21
2023-04-24T11:11:41.077Z,42.30
2023-04-24T11:16:53.708Z,41.94
2023-04-24T11:22:11.290Z,42.21
2023-04-24T11:27:16.520Z,42.54
2023-04-24T11:32:32.968Z,41.68
2023-04-24T11:37:49.465Z,41.59
2023-04-24T11:43:03.068Z,41.64
2023-04-24T11:48:07.257Z,41.57
2023-04-24T11:53:15.090Z,41.38
2023-04-24T11:58:24.068Z,41.68
2023-04-24T12:03:32.710Z,41.89
2023-04-24T12:08:50.061Z,42.04
2023-04-24T12:13:59.788Z,41.75
2023-04-24T12:19:03.875Z,41.88
2023-04-24T12:24:09.683Z,42.67
2023-04-24T12:29:13.238Z,43.23
2023-04-24T12:34:22.274Z,43.53
2023-04-24T12:39:27.723Z,43.64
2023-04-24T12:44:33.178Z,43.99
2023-04-24T12:49:44.889Z,43.57
2023-04-24T12:54:52.734Z,42.82
2023-04-24T12:59:59.412Z,44.48
2023-04-24T13:05:13.061Z,43.65
2023-04-24T13:10:25.509Z,43.13
2023-04-24T13:15:32.359Z,43.73
2023-04-24T13:20:37.532Z,43.70
2023-04-24T13:25:43.522Z,43.83
2023-04-24T13:30:55.451Z,44.00
2023-04-24T13:35:59.924Z,44.13
2023-04-24T13:41:05.285Z,44.35
2023-04-24T13:46:10.038Z,44.70
2023-04-24T13:51:21.744Z,44.14
2023-04-24T13:56:28.909Z,44.49
2023-04-24T14:01:47.797Z,44.72
2023-04-24T14:06:57.252Z,45.29
2023-04-24T14:12:02.004Z,45.27
2023-04-24T14:17:04.833Z,45.45
2023-04-24T14:22:08.007Z,44.59
2023-04-24T14:27:12.278Z,42.84
2023-04-24T14:32:15.912Z,42.21
2023-04-24T14:37:18.770Z,42.94
2023-04-24T14:42:22.893Z,41.75
2023-04-24T14:47:26.970Z,41.33
2023-04-24T14:52:29.790Z,41.99
2023-04-24T14:57:33.983Z,40.46
2023-04-24T15:02:40.932Z,40.09
2023-04-24T15:07:44.172Z,39.52
2023-04-24T15:12:48.263Z,39.73
2023-04-24T15:17:51.535Z,40.51
2023-04-24T15:22:56.582Z,40.88
2023-04-24T15:28:09.268Z,41.06
2023-04-24T15:33:14.729Z,41.27
2023-04-24T15:38:22.393Z,40.83
2023-04-24T15:43:29.105Z,41.15
2023-04-24T15:48:32.666Z,41.49
2023-04-24T15:53:40.491Z,40.83
2023-04-24T15:58:47.372Z,39.41
2023-04-24T16:03:59.209Z,39.06
2023-04-24T16:09:09.656Z,38.23
2023-04-24T16:14:22.909Z,36.45
2023-04-24T16:19:37.434Z,35.57
2023-04-24T16:24:47.595Z,34.48
2023-04-24T16:29:58.174Z,34.71
2023-04-24T16:35:07.607Z,35.09
2023-04-24T16:40:26.943Z,37.11
2023-04-24T16:45:31.283Z,38.03
2023-04-24T16:50:34.133Z,39.00
2023-04-24T16:55:36.958Z,39.17
2023-04-24T17:00:41.222Z,39.48
2023-04-24T17:05:44.888Z,39.27
2023-04-24T17:10:55.830Z,40.11
2023-04-24T17:16:10.987Z,40.53
2023-04-24T17:21:20.892Z,40.22
2023-04-24T17:26:26.317Z,41.49
2023-04-24T17:31:30.589Z,41.25
2023-04-24T17:36:33.549Z,41.75
2023-04-24T17:41:36.748Z,41.86
2023-04-24T17:46:40.957Z,41.88
2023-04-24T17:51:43.762Z,42.12
2023-04-24T17:56:46.501Z,42.47
2023-04-24T18:01:50.772Z,43.03
2023-04-24T18:06:54.718Z,43.08
2023-04-24T18:12:05.593Z,43.00
2023-04-24T18:17:13.356Z,43.33
2023-04-24T18:22:20.249Z,43.53
2023-04-24T18:27:34.083Z,43.78
2023-04-24T18:32:40.214Z,43.89
2023-04-24T18:37:42.982Z,44.09
2023-04-24T18:42:45.947Z,44.04
2023-04-24T18:47:50.246Z,44.35
2023-04-24T18:52:53.150Z,44.17
2023-04-24T18:57:56.011Z,43.92
2023-04-24T19:03:00.376Z,43.99
2023-04-24T19:08:03.331Z,43.87
2023-04-24T19:13:06.271Z,43.69
2023-04-24T19:18:10.676Z,43.95
2023-04-24T19:23:13.539Z,44.23
2023-04-24T19:28:16.294Z,43.59
2023-04-24T19:33:20.468Z,43.70
2023-04-24T19:38:23.320Z,43.78
2023-04-24T19:43:26.385Z,43.91
2023-04-24T19:48:32.608Z,43.93
2023-04-24T19:53:43.865Z,43.86
2023-04-24T19:58:51.809Z,44.05
2023-04-24T20:03:57.729Z,43.75
2023-04-24T20:09:00.743Z,43.51
2023-04-24T20:14:03.722Z,43.81
2023-04-24T20:19:08.251Z,43.76
2023-04-24T20:24:11.045Z,43.88
2023-04-24T20:29:13.868Z,43.92
2023-04-24T20:34:19.926Z,43.99
2023-04-24T20:39:24.418Z,44.13
2023-04-24T20:44:27.312Z,44.16
2023-04-24T20:49:34.529Z,44.13
2023-04-24T20:54:43.685Z,43.97
2023-04-24T20:59:48.470Z,44.31
2023-04-24T21:04:52.827Z,44.24
2023-04-24T21:09:55.988Z,44.47
2023-04-24T21:15:03.970Z,44.48
2023-04-24T21:20:12.048Z,44.51
2023-04-24T21:25:15.698Z,44.49
2023-04-24T21:30:19.202Z,44.85
2023-04-24T21:35:23.814Z,44.66
2023-04-24T21:40:26.572Z,44.64
2023-04-24T21:45:29.397Z,44.88
2023-04-24T21:50:33.554Z,44.66
2023-04-24T21:55:36.352Z,44.67
2023-04-24T22:00:45.905Z,44.66
2023-04-24T22:05:50.196Z,44.56
2023-04-24T22:10:53.402Z,44.60
2023-04-24T22:15:56.418Z,44.58
2023-04-24T22:21:01.083Z,44.73
2023-04-24T22:26:03.978Z,45.03
2023-04-24T22:31:07.414Z,45.06
2023-04-24T22:36:11.663Z,45.28
2023-04-24T22:41:14.781Z,45.34
2023-04-24T22:46:17.632Z,45.74
2023-04-24T22:51:22.787Z,45.81
2023-04-24T22:56:26.011Z,45.96
2023-04-24T23:01:28.946Z,46.24
2023-04-24T23:06:33.469Z,46.23
2023-04-24T23:11:36.282Z,46.46
2023-04-24T23:16:40.858Z,46.77
2023-04-24T23:21:45.006Z,46.78
2023-04-24T23:26:47.774Z,47.03
2023-04-24T23:31:50.971Z,47.42
2023-04-24T23:36:55.357Z,47.60
2023-04-24T23:41:59.571Z,47.76
2023-04-24T23:47:02.501Z,47.91
2023-04-24T23:52:06.753Z,48.29
2023-04-24T23:57:09.620Z,48.42
